Time;durP1;ratioP1;P1;durP2;ratioP2;P2;SDS_P1;SDS_P2;PMS_P1;PMS_P2;Temp;Humidity;BMP_temperature;BMP_pressure;BME280_temperature;BME280_humidity;BME280_pressure;Samples;Min_cycle;Max_cycle;Signal;HPM_P1;HPM_P2
2023/05/17 00:00:16;;;;;;;;;;;;;;;-144.99;96.79;52268.72;5104994;28;19928;-70
2023/05/17 00:02:42;;;;;;;;;;;;;;;-144.99;96.77;52305.41;5089162;28;20030;-70
2023/05/17 00:05:10;;;;;;;;;;;;;;;-144.99;96.78;52285.03;5097810;28;19931;-70
2023/05/17 00:07:37;;;;;;;;;;;;;;;-144.99;96.28;52305.41;5099315;28;20373;-70
2023/05/17 00:10:03;;;;;;;;;;;;;;;-144.99;96.17;52289.13;5089653;28;19958;-69
2023/05/17 00:12:30;;;;;;;;;;;;;;;-144.99;95.93;52301.34;5098030;28;19924;-69
2023/05/17 00:14:57;;;;;;;;;;;;;;;-144.99;95.87;52289.13;5093557;27;19924;-69
2023/05/17 00:17:25;;;;;;;;;;;;;;;-144.99;96.10;52297.25;5089090;28;19943;-69
2023/05/17 00:19:51;;;;;;;;;;;;;;;-144.99;96.02;52285.03;5097005;28;19924;-71
2023/05/17 00:22:18;;;;;;;;;;;;;;;-144.99;96.19;52297.25;5094049;28;19939;-71
2023/05/17 00:24:44;;;;;;;;;;;;;;;-144.99;96.02;52309.50;5092028;28;20321;-71
2023/05/17 00:27:11;;;;;;;;;;;;;;;-144.99;96.17;52301.34;5094801;28;19928;-67
2023/05/17 00:29:38;;;;;;;;;;;;;;;-144.99;96.22;52352.28;5087653;28;19928;-69
2023/05/17 00:32:05;;;;;;;;;;;;;;;-144.99;96.40;52301.34;5087210;28;19935;-69
2023/05/17 00:34:33;;;;;;;;;;;;;;;-144.99;96.36;52301.34;5088832;28;19924;-67
2023/05/17 00:36:59;;;;;;;;;;;;;;;-144.99;96.33;52260.56;5088779;28;19978;-68
2023/05/17 00:39:26;;;;;;;;;;;;;;;-144.99;96.33;52303.38;5087864;28;19924;-68
2023/05/17 00:41:52;;;;;;;;;;;;;;;-144.99;96.66;52293.19;5088505;28;19931;-67
2023/05/17 00:44:19;;;;;;;;;;;;;;;-144.99;96.52;52313.56;5092400;28;19928;-68
2023/05/17 00:46:46;;;;;;;;;;;;;;;-144.99;96.15;52321.72;5087729;28;20381;-68
2023/05/17 00:49:15;;;;;;;;;;;;;;;-144.99;96.30;52250.38;5096058;28;19936;-68
2023/05/17 00:51:44;;;;;;;;;;;;;;;-144.99;96.05;52301.34;5087622;28;20356;-68
2023/05/17 00:54:11;;;;;;;;;;;;;;;-144.99;95.65;52264.66;5093191;28;19928;-69
2023/05/17 00:56:38;;;;;;;;;;;;;;;-144.99;95.32;52285.03;5087437;28;19924;-69
2023/05/17 00:59:06;;;;;;;;;;;;;;;-144.99;95.77;52287.06;5087004;28;19928;-69
2023/05/17 01:01:33;;;;;;;;;;;;;;;-144.99;94.71;52301.34;5094694;28;20003;-68
2023/05/17 01:04:00;;;;;;;;;;;;;;;-144.99;94.16;52289.13;5099418;28;20377;-72
2023/05/17 01:06:27;;;;;;;;;;;;;;;-144.99;93.29;52285.03;5092691;28;20019;-68
2023/05/17 01:08:55;;;;;;;;;;;;;;;-144.99;93.25;52283.00;5088708;28;20340;-70
2023/05/17 01:11:29;;;;;;;;;;;;;;;-144.99;92.75;52301.34;5091794;28;20369;-71
2023/05/17 01:14:02;;;;;;;;;;;;;;;-144.99;92.59;52325.81;5093387;28;19923;-69
2023/05/17 01:16:32;;;;;;;;;;;;;;;-144.99;92.44;52293.19;5094041;28;20390;-69
2023/05/17 01:19:02;;;;;;;;;;;;;;;-144.99;92.31;52276.88;5095711;28;19932;-71
2023/05/17 01:21:35;;;;;;;;;;;;;;;-144.99;92.16;52280.97;5087221;28;20484;-69
2023/05/17 01:24:11;;;;;;;;;;;;;;;-144.99;92.31;52299.31;5093636;28;19978;-70
2023/05/17 01:26:42;;;;;;;;;;;;;;;-144.99;92.17;52260.56;5089779;28;20381;-70
2023/05/17 01:29:09;;;;;;;;;;;;;;;-144.99;91.96;52301.34;5087575;28;19924;-70
2023/05/17 01:31:36;;;;;;;;;;;;;;;-144.99;91.85;52293.19;5086900;28;19928;-70
2023/05/17 01:34:06;;;;;;;;;;;;;;;-144.99;91.73;52301.34;5087193;28;19935;-70
2023/05/17 01:36:33;;;;;;;;;;;;;;;-144.99;91.76;52278.91;5093029;28;19924;-70
2023/05/17 01:39:00;;;;;;;;;;;;;;;-144.99;91.61;52280.97;5095791;28;19924;-70
2023/05/17 01:41:29;;;;;;;;;;;;;;;-144.99;91.27;52276.88;5088717;28;20242;-70
2023/05/17 01:44:00;;;;;;;;;;;;;;;-144.99;91.11;52297.25;5096287;28;19924;-70
2023/05/17 01:46:28;;;;;;;;;;;;;;;-144.99;90.71;52309.50;5087444;28;19964;-70
2023/05/17 01:49:00;;;;;;;;;;;;;;;-144.99;90.49;52338.03;5095517;28;19924;-69
2023/05/17 01:51:30;;;;;;;;;;;;;;;-144.99;89.98;52289.13;5101508;28;20280;-69
2023/05/17 01:53:57;;;;;;;;;;;;;;;-144.99;90.19;52272.81;5093153;28;19930;-71
2023/05/17 01:56:27;;;;;;;;;;;;;;;-144.99;90.02;52301.34;5087241;28;19928;-73
2023/05/17 01:58:58;;;;;;;;;;;;;;;-144.99;89.84;52321.72;5087161;28;19924;-72
2023/05/17 02:01:27;;;;;;;;;;;;;;;-144.99;89.56;52362.50;5087274;28;19939;-71
2023/05/17 02:03:54;;;;;;;;;;;;;;;-144.99;89.53;52346.19;5087088;28;19924;-73
2023/05/17 02:06:20;;;;;;;;;;;;;;;-144.99;89.51;52370.63;5091533;28;19958;-72
2023/05/17 02:08:47;;;;;;;;;;;;;;;-144.99;89.42;52311.53;5092335;28;20302;-72
2023/05/17 02:11:13;;;;;;;;;;;;;;;-144.99;89.46;52283.00;5098406;28;19934;-72
2023/05/17 02:13:40;;;;;;;;;;;;;;;-144.99;89.12;52313.56;5098580;27;20407;-72
2023/05/17 02:16:07;;;;;;;;;;;;;;;-144.99;89.25;52311.53;5097850;28;19931;-72
2023/05/17 02:18:36;;;;;;;;;;;;;;;-144.99;89.20;52329.88;5092414;28;19942;-72
2023/05/17 02:21:03;;;;;;;;;;;;;;;-144.99;89.42;52311.53;5102546;28;19950;-72
2023/05/17 02:23:30;;;;;;;;;;;;;;;-144.99;89.19;52299.31;5097848;28;20019;-75
2023/05/17 02:25:56;;;;;;;;;;;;;;;-144.99;89.20;52305.41;5093444;28;20389;-72
2023/05/17 02:28:23;;;;;;;;;;;;;;;-144.99;89.07;52305.41;5094208;28;19931;-73
2023/05/17 02:30:50;;;;;;;;;;;;;;;-144.99;88.84;52301.34;5107540;28;19928;-72
2023/05/17 02:33:16;;;;;;;;;;;;;;;-144.99;89.20;52305.41;5096125;28;19946;-73
2023/05/17 02:35:44;;;;;;;;;;;;;;;-144.99;88.86;52299.31;5100338;28;19935;-72
2023/05/17 02:38:11;;;;;;;;;;;;;;;-144.99;88.08;52331.91;5095677;28;19928;-72
2023/05/17 02:40:40;;;;;;;;;;;;;;;-144.99;87.82;52346.19;5097134;28;19924;-72
2023/05/17 02:43:07;;;;;;;;;;;;;;;-144.99;87.44;52346.19;5095551;28;19927;-73
2023/05/17 02:45:34;;;;;;;;;;;;;;;-144.99;87.25;52317.66;5094719;28;20374;-71
2023/05/17 02:48:00;;;;;;;;;;;;;;;-144.99;87.08;52340.06;5091212;28;19927;-74
2023/05/17 02:50:27;;;;;;;;;;;;;;;-144.99;87.00;52333.94;5094104;28;19924;-72
2023/05/17 02:52:55;;;;;;;;;;;;;;;-144.99;86.85;52329.88;5102521;28;19924;-70
2023/05/17 02:55:21;;;;;;;;;;;;;;;-144.99;86.75;52333.94;5091379;28;19931;-70
2023/05/17 02:57:48;;;;;;;;;;;;;;;-144.99;86.77;52340.06;5089741;28;19928;-70
2023/05/17 03:00:15;;;;;;;;;;;;;;;-144.99;86.51;52346.19;5090653;28;20301;-67
2023/05/17 03:02:44;;;;;;;;;;;;;;;-144.99;86.12;52303.38;5088793;28;21321;-62
2023/05/17 03:05:10;;;;;;;;;;;;;;;-144.99;85.98;52313.56;5090009;28;19928;-71
2023/05/17 03:07:37;;;;;;;;;;;;;;;-144.99;85.86;52291.16;5093596;28;19924;-71
2023/05/17 03:10:06;;;;;;;;;;;;;;;-144.99;85.93;52315.59;5098517;28;19924;-71
2023/05/17 03:12:32;;;;;;;;;;;;;;;-144.99;85.92;52301.34;5098038;28;19924;-66
2023/05/17 03:14:59;;;;;;;;;;;;;;;-144.99;85.67;52333.94;5098526;27;19924;-66
2023/05/17 03:17:26;;;;;;;;;;;;;;;-144.99;85.73;52299.31;5104145;28;19932;-65
2023/05/17 03:19:52;;;;;;;;;;;;;;;-144.99;85.59;52285.03;5091957;28;19931;-67
2023/05/17 03:22:19;;;;;;;;;;;;;;;-144.99;85.28;52323.75;5090201;28;19932;-67
2023/05/17 03:24:46;;;;;;;;;;;;;;;-144.99;85.35;52342.09;5094316;28;20422;-67
2023/05/17 03:27:14;;;;;;;;;;;;;;;-144.99;85.47;52333.94;5090678;28;19931;-68
2023/05/17 03:29:40;;;;;;;;;;;;;;;-144.99;85.59;52305.41;5089166;28;20362;-68
2023/05/17 03:32:08;;;;;;;;;;;;;;;-144.99;85.69;52313.56;5091869;28;20273;-67
2023/05/17 03:34:34;;;;;;;;;;;;;;;-144.99;85.91;52342.09;5088934;28;19924;-68
2023/05/17 03:37:01;;;;;;;;;;;;;;;-144.99;85.89;52301.34;5092298;28;19938;-68
2023/05/17 03:39:28;;;;;;;;;;;;;;;-144.99;85.99;52297.25;5094609;28;20356;-67
2023/05/17 03:41:55;;;;;;;;;;;;;;;-144.99;85.91;52354.34;5098932;28;19924;-69
2023/05/17 03:44:23;;;;;;;;;;;;;;;-144.99;85.88;52303.38;5089284;28;20325;-69
2023/05/17 03:46:49;;;;;;;;;;;;;;;-144.99;85.83;52307.47;5099784;28;20412;-67
2023/05/17 03:49:16;;;;;;;;;;;;;;;-144.99;85.62;52319.69;5098142;28;19928;-71
2023/05/17 03:51:43;;;;;;;;;;;;;;;-144.99;85.46;52309.50;5098217;28;19924;-71
2023/05/17 03:54:10;;;;;;;;;;;;;;;-144.99;85.40;52293.19;5098250;28;19924;-73
2023/05/17 03:56:37;;;;;;;;;;;;;;;-144.99;85.07;52342.09;5098015;28;19934;-72
2023/05/17 03:59:03;;;;;;;;;;;;;;;-144.99;84.87;52331.91;5093127;28;19923;-73
2023/05/17 04:01:31;;;;;;;;;;;;;;;-144.99;84.76;52342.09;5100937;28;19924;-74
2023/05/17 04:04:00;;;;;;;;;;;;;;;-144.99;84.31;52342.09;5097926;28;19932;-73
2023/05/17 04:06:26;;;;;;;;;;;;;;;-144.99;84.02;52295.22;5098801;28;19975;-73
2023/05/17 04:08:53;;;;;;;;;;;;;;;-144.99;84.06;52329.88;5098570;28;19932;-76
2023/05/17 04:11:22;;;;;;;;;;;;;;;-144.99;84.13;52338.03;5092654;28;19939;-72
2023/05/17 04:13:49;;;;;;;;;;;;;;;-144.99;83.91;52295.22;5104600;27;20030;-73
2023/05/17 04:16:16;;;;;;;;;;;;;;;-144.99;83.76;52303.38;5088695;28;19934;-72
2023/05/17 04:18:44;;;;;;;;;;;;;;;-144.99;83.66;52362.50;5086644;28;20365;-67
2023/05/17 04:21:11;;;;;;;;;;;;;;;-144.99;83.36;52325.81;5089532;28;19928;-67
2023/05/17 04:23:37;;;;;;;;;;;;;;;-144.99;83.04;52336.00;5099987;28;19929;-68
2023/05/17 04:26:04;;;;;;;;;;;;;;;-144.99;83.00;52301.34;5089108;28;19925;-68
2023/05/17 04:28:33;;;;;;;;;;;;;;;-144.99;83.20;52333.94;5093692;28;20445;-71
2023/05/17 04:31:00;;;;;;;;;;;;;;;-144.99;82.87;52325.81;5089041;28;19980;-71
2023/05/17 04:33:26;;;;;;;;;;;;;;;-144.99;82.86;52329.88;5093016;28;19928;-70
2023/05/17 04:35:56;;;;;;;;;;;;;;;-144.99;83.22;52329.88;5089716;28;20389;-70
2023/05/17 04:38:23;;;;;;;;;;;;;;;-144.99;83.49;52327.84;5088141;28;20357;-71
2023/05/17 04:40:50;;;;;;;;;;;;;;;-144.99;84.03;52309.50;5089245;28;19960;-70
2023/05/17 04:43:16;;;;;;;;;;;;;;;-144.99;83.43;52313.56;5089351;28;20384;-70
2023/05/17 04:45:43;;;;;;;;;;;;;;;-144.99;83.81;52329.88;5087874;28;19928;-70
2023/05/17 04:48:10;;;;;;;;;;;;;;;-144.99;82.97;52342.09;5098565;28;19947;-71
2023/05/17 04:50:36;;;;;;;;;;;;;;;-144.99;83.06;52329.88;5099987;28;20391;-71
2023/05/17 04:53:04;;;;;;;;;;;;;;;-144.99;85.34;52323.75;5091854;28;19924;-71
2023/05/17 04:55:31;;;;;;;;;;;;;;;-144.99;85.00;52374.72;5092530;28;19924;-71
2023/05/17 04:57:59;;;;;;;;;;;;;;;-144.99;84.70;52293.19;5096291;28;19928;-63
2023/05/17 05:00:26;;;;;;;;;;;;;;;-144.99;82.05;52305.41;5088143;28;20292;-64
2023/05/17 05:02:53;;;;;;;;;;;;;;;-144.99;82.25;52301.34;5089448;28;19924;-63
2023/05/17 05:05:20;;;;;;;;;;;;;;;-144.99;81.77;52297.25;5099602;28;19928;-63
2023/05/17 05:07:47;;;;;;;;;;;;;;;-144.99;80.11;52319.69;5089011;28;20004;-63
2023/05/17 05:10:14;;;;;;;;;;;;;;;-144.99;80.17;52297.25;5096157;28;19932;-67
2023/05/17 05:12:41;;;;;;;;;;;;;;;-144.99;79.70;52313.56;5104087;28;19935;-68
2023/05/17 05:15:08;;;;;;;;;;;;;;;-144.99;78.49;52305.41;4390734;27;10020775;-68
2023/05/17 05:17:35;;;;;;;;;;;;;;;-144.99;78.35;52333.94;5102571;28;19923;-66
2023/05/17 05:20:02;;;;;;;;;;;;;;;-144.99;77.96;52358.41;5086087;28;20336;-66
2023/05/17 05:22:29;;;;;;;;;;;;;;;-144.99;76.60;52276.88;5089894;28;19964;-66
2023/05/17 05:24:55;;;;;;;;;;;;;;;-144.99;76.73;52317.66;5090556;28;19934;-68
2023/05/17 05:27:23;;;;;;;;;;;;;;;-144.99;76.98;52321.72;5092749;28;19938;-67
2023/05/17 05:29:50;;;;;;;;;;;;;;;-144.99;76.89;52297.25;5086322;28;19932;-67
2023/05/17 05:32:17;;;;;;;;;;;;;;;-144.99;76.66;52305.41;5094867;28;19952;-66
2023/05/17 05:34:44;;;;;;;;;;;;;;;-144.99;76.50;52305.41;5091787;28;19935;-66
2023/05/17 05:37:11;;;;;;;;;;;;;;;-144.99;76.22;52317.66;5089470;28;20401;-67
2023/05/17 05:39:37;;;;;;;;;;;;;;;-144.99;75.74;52317.66;5088576;28;20043;-69
2023/05/17 05:42:04;;;;;;;;;;;;;;;-144.99;75.22;52285.03;5088460;28;19924;-67
2023/05/17 05:44:32;;;;;;;;;;;;;;;-144.99;75.09;52305.41;5092664;28;19931;-68
2023/05/17 05:46:59;;;;;;;;;;;;;;;-144.99;75.36;52287.06;5095787;28;19924;-68
2023/05/17 05:49:25;;;;;;;;;;;;;;;-144.99;75.15;52268.72;5096480;28;20008;-67
2023/05/17 05:51:52;;;;;;;;;;;;;;;-144.99;75.14;52264.66;5088455;28;19931;-67
2023/05/17 05:54:19;;;;;;;;;;;;;;;-144.99;75.10;52342.09;5092454;28;19931;-68
2023/05/17 05:56:45;;;;;;;;;;;;;;;-144.99;75.10;52293.19;5097894;28;19923;-68
2023/05/17 05:59:12;;;;;;;;;;;;;;;-144.99;74.98;52307.47;5092619;28;19935;-68
2023/05/17 06:01:40;;;;;;;;;;;;;;;-144.99;75.06;52276.88;5091973;28;19935;-68
2023/05/17 06:04:07;;;;;;;;;;;;;;;-144.99;75.22;52280.97;5088046;28;19932;-67
2023/05/17 06:06:33;;;;;;;;;;;;;;;-144.99;75.15;52346.19;5088065;28;19924;-67
2023/05/17 06:09:00;;;;;;;;;;;;;;;-144.99;75.17;52297.25;5094684;28;20321;-67
2023/05/17 06:11:26;;;;;;;;;;;;;;;-144.99;75.19;52325.81;5096723;28;19927;-67
2023/05/17 06:13:53;;;;;;;;;;;;;;;-144.99;75.39;52342.09;5093444;27;19928;-68
2023/05/17 06:16:20;;;;;;;;;;;;;;;-144.99;75.38;52246.31;5099311;28;19931;-67
2023/05/17 06:18:48;;;;;;;;;;;;;;;-144.99;75.11;52256.50;5088778;28;19924;-67
2023/05/17 06:21:16;;;;;;;;;;;;;;;-144.99;75.28;52307.47;5094508;28;19928;-68
2023/05/17 06:23:42;;;;;;;;;;;;;;;-144.99;75.01;52297.25;5092913;28;19936;-68
2023/05/17 06:26:10;;;;;;;;;;;;;;;-144.99;74.94;52268.72;5088772;28;20285;-68
2023/05/17 06:28:36;;;;;;;;;;;;;;;-144.99;74.67;52342.09;5097528;28;19935;-67
2023/05/17 06:31:03;;;;;;;;;;;;;;;-144.99;74.14;52305.41;5095325;28;19928;-68
2023/05/17 06:33:29;;;;;;;;;;;;;;;-144.99;73.52;52276.88;5087349;28;19943;-67
2023/05/17 06:35:57;;;;;;;;;;;;;;;-144.99;73.48;52301.34;5088376;28;19940;-67
2023/05/17 06:38:24;;;;;;;;;;;;;;;-144.99;73.22;52301.34;5088110;28;19928;-69
2023/05/17 06:40:51;;;;;;;;;;;;;;;-144.99;73.13;52313.56;5086867;28;19928;-68
2023/05/17 06:43:18;;;;;;;;;;;;;;;-144.99;72.63;52258.53;5087019;28;19931;-67
2023/05/17 06:45:45;;;;;;;;;;;;;;;-144.99;72.72;52289.13;5087365;28;19928;-67
2023/05/17 06:48:11;;;;;;;;;;;;;;;-144.99;72.76;52321.72;5087141;28;20226;-68
2023/05/17 06:50:38;;;;;;;;;;;;;;;-144.99;72.82;52317.66;5087263;28;20363;-67
2023/05/17 06:53:06;;;;;;;;;;;;;;;-144.99;72.22;52313.56;5087423;28;19939;-66
2023/05/17 06:55:33;;;;;;;;;;;;;;;-144.99;72.26;52309.50;5087181;28;19932;-67
2023/05/17 06:58:00;;;;;;;;;;;;;;;-144.99;72.08;52309.50;5085973;28;19940;-67
2023/05/17 07:00:27;;;;;;;;;;;;;;;-144.99;71.86;52301.34;5087985;28;19949;-67
2023/05/17 07:02:53;;;;;;;;;;;;;;;-144.99;71.86;52289.13;5085945;28;20273;-67
2023/05/17 07:05:20;;;;;;;;;;;;;;;-144.99;72.28;52297.25;5095608;28;19959;-67
2023/05/17 07:07:47;;;;;;;;;;;;;;;-144.99;72.22;52289.13;5097014;28;19924;-67
2023/05/17 07:10:15;;;;;;;;;;;;;;;-144.99;72.33;52289.13;5093644;28;19939;-67
2023/05/17 07:12:42;;;;;;;;;;;;;;;-144.99;72.13;52289.13;5098245;28;20377;-68
2023/05/17 07:15:09;;;;;;;;;;;;;;;-144.99;72.29;52333.94;5094506;27;19939;-67
2023/05/17 07:17:35;;;;;;;;;;;;;;;-144.99;72.28;52309.50;5098692;28;19932;-67
2023/05/17 07:20:02;;;;;;;;;;;;;;;-144.99;71.99;52323.75;5091701;28;19954;-66
2023/05/17 07:22:29;;;;;;;;;;;;;;;-144.99;71.94;52260.56;5084898;28;19928;-66
2023/05/17 07:24:55;;;;;;;;;;;;;;;-144.99;71.44;52256.50;5093898;28;19935;-67
2023/05/17 07:27:23;;;;;;;;;;;;;;;-144.99;71.51;52285.03;5094384;28;20251;-67
2023/05/17 07:29:50;;;;;;;;;;;;;;;-144.99;71.01;52321.72;5086460;28;19935;-67
2023/05/17 07:32:16;;;;;;;;;;;;;;;-144.99;70.91;52264.66;5092478;28;19931;-68
2023/05/17 07:34:43;;;;;;;;;;;;;;;-144.99;71.09;52289.13;5092256;28;19928;-69
2023/05/17 07:37:10;;;;;;;;;;;;;;;-144.99;70.67;52289.13;5091427;28;19935;-66
2023/05/17 07:39:36;;;;;;;;;;;;;;;-144.99;70.43;52313.56;5092320;28;19928;-68
2023/05/17 07:42:03;;;;;;;;;;;;;;;-144.99;70.28;52285.03;5095330;28;19928;-67
2023/05/17 07:44:31;;;;;;;;;;;;;;;-144.99;70.80;52252.44;5086338;28;20386;-67
2023/05/17 07:46:58;;;;;;;;;;;;;;;-144.99;70.77;52262.63;5095997;28;20102;-67
2023/05/17 07:49:24;;;;;;;;;;;;;;;-144.99;71.21;52252.44;5096146;28;20389;-67
2023/05/17 07:51:51;;;;;;;;;;;;;;;-144.99;70.68;52240.19;5094494;28;19939;-68
2023/05/17 07:54:25;;;;;;;;;;;;;;;-144.99;70.96;52276.88;5090433;28;19963;-67
2023/05/17 07:56:54;;;;;;;;;;;;;;;-144.99;70.51;52260.56;5087722;28;19951;-67
2023/05/17 07:59:20;;;;;;;;;;;;;;;-144.99;70.99;52232.03;5087707;28;19931;-67
2023/05/17 08:01:48;;;;;;;;;;;;;;;-144.99;70.14;52268.72;5092350;28;20057;-68
2023/05/17 08:04:15;;;;;;;;;;;;;;;-144.99;69.73;52248.34;5090342;28;20443;-67
2023/05/17 08:06:42;;;;;;;;;;;;;;;-144.99;69.61;52256.50;5094726;28;19927;-68
2023/05/17 08:09:09;;;;;;;;;;;;;;;-144.99;69.45;52236.13;5086340;28;19932;-67
2023/05/17 08:11:36;;;;;;;;;;;;;;;-144.99;69.02;52262.63;5091984;28;19934;-68
2023/05/17 08:14:04;;;;;;;;;;;;;;;-144.99;69.09;52225.94;5095770;27;20038;-67
2023/05/17 08:16:31;;;;;;;;;;;;;;;-144.99;67.99;52240.19;5091786;28;19923;-67
2023/05/17 08:18:58;;;;;;;;;;;;;;;-144.99;68.55;52211.66;5087859;28;20338;-68
2023/05/17 08:21:25;;;;;;;;;;;;;;;-144.99;68.43;52207.59;5091902;28;20389;-68
2023/05/17 08:23:52;;;;;;;;;;;;;;;-144.99;67.77;52219.81;5088763;28;19928;-67
2023/05/17 08:26:18;;;;;;;;;;;;;;;-144.99;67.79;52244.28;5091626;28;19965;-69
2023/05/17 08:28:45;;;;;;;;;;;;;;;-144.99;67.90;52252.44;5090871;28;19935;-66
2023/05/17 08:31:12;;;;;;;;;;;;;;;-144.99;68.21;52293.19;5094052;28;19971;-66
2023/05/17 08:33:38;;;;;;;;;;;;;;;-144.99;67.46;52248.34;5092078;28;20030;-66
2023/05/17 08:36:07;;;;;;;;;;;;;;;-144.99;67.83;52260.56;5085698;28;19928;-67
2023/05/17 08:38:34;;;;;;;;;;;;;;;-144.99;68.12;52227.97;5091877;28;20397;-67
2023/05/17 08:41:01;;;;;;;;;;;;;;;-144.99;68.23;52297.25;5091807;27;20078;-67
2023/05/17 08:43:29;;;;;;;;;;;;;;;-144.99;68.38;52256.50;5091760;28;19987;-67
2023/05/17 08:45:57;;;;;;;;;;;;;;;-144.99;69.18;52256.50;5086279;28;20343;-66
2023/05/17 08:48:25;;;;;;;;;;;;;;;-144.99;69.68;52248.34;5091281;28;19924;-67
2023/05/17 08:50:53;;;;;;;;;;;;;;;-144.99;70.30;52260.56;5084837;28;19928;-66
2023/05/17 08:53:21;;;;;;;;;;;;;;;-144.99;71.28;52278.91;5089348;28;19931;-67
2023/05/17 08:55:49;;;;;;;;;;;;;;;-144.99;71.42;52303.38;5095520;28;19930;-67
2023/05/17 08:58:17;;;;;;;;;;;;;;;-144.99;71.57;52276.88;5096361;28;20290;-67
2023/05/17 09:00:45;;;;;;;;;;;;;;;-144.99;71.28;52264.66;5086111;28;19927;-68
2023/05/17 09:03:14;;;;;;;;;;;;;;;-144.99;71.35;52325.81;5085235;28;19928;-67
2023/05/17 09:05:40;;;;;;;;;;;;;;;-144.99;71.76;52293.19;5088482;28;19944;-67
2023/05/17 09:08:12;;;;;;;;;;;;;;;-144.99;71.65;52311.53;5087563;28;19970;-67
2023/05/17 09:10:40;;;;;;;;;;;;;;;-144.99;71.87;52285.03;5088247;28;19939;-67
2023/05/17 09:13:07;;;;;;;;;;;;;;;-144.99;71.58;52280.97;5091717;28;19996;-66
2023/05/17 09:15:34;;;;;;;;;;;;;;;-144.99;71.33;52293.19;5102821;28;20448;-67
2023/05/17 09:18:00;;;;;;;;;;;;;;;-144.99;71.18;52283.00;5092923;28;20301;-67
2023/05/17 09:20:32;;;;;;;;;;;;;;;-144.99;70.48;52289.13;5094724;28;20020;-68
2023/05/17 09:22:59;;;;;;;;;;;;;;;-144.99;69.57;52264.66;5089036;28;20430;-68
2023/05/17 09:25:26;;;;;;;;;;;;;;;-144.99;69.12;52309.50;5101682;28;19928;-67
2023/05/17 09:27:56;;;;;;;;;;;;;;;-144.99;68.73;52285.03;5080172;28;20362;-67
2023/05/17 09:30:27;;;;;;;;;;;;;;;-144.99;68.66;52264.66;5088799;28;20318;-68
2023/05/17 09:32:54;;;;;;;;;;;;;;;-144.99;68.75;52244.28;5088600;28;20023;-68
2023/05/17 09:35:27;;;;;;;;;;;;;;;-144.99;67.88;52203.50;5087276;28;20024;-68
2023/05/17 09:37:53;;;;;;;;;;;;;;;-144.99;67.82;52244.28;5088997;28;19933;-67
2023/05/17 09:40:24;;;;;;;;;;;;;;;-144.99;67.13;52240.19;5088573;28;20231;-67
2023/05/17 09:42:50;;;;;;;;;;;;;;;-144.99;67.41;52223.88;5097542;28;20027;-68
2023/05/17 09:45:23;;;;;;;;;;;;;;;-144.99;68.25;52256.50;5099858;28;20351;-67
2023/05/17 09:47:49;;;;;;;;;;;;;;;-144.99;67.96;52217.78;5089656;28;20423;-68
2023/05/17 09:50:18;;;;;;;;;;;;;;;-144.99;68.48;52217.78;5087772;28;19928;-67
2023/05/17 09:52:45;;;;;;;;;;;;;;;-144.99;69.21;52276.88;5095411;28;20457;-67
2023/05/17 09:55:12;;;;;;;;;;;;;;;-144.99;69.32;52256.50;5092680;28;19936;-66
2023/05/17 09:57:39;;;;;;;;;;;;;;;-144.99;69.63;52227.97;5088090;28;19978;-67
2023/05/17 10:00:08;;;;;;;;;;;;;;;-144.99;69.77;52280.97;5096190;28;19966;-66
2023/05/17 10:02:37;;;;;;;;;;;;;;;-144.99;69.89;52289.13;5103022;28;19996;-67
2023/05/17 10:05:05;;;;;;;;;;;;;;;-144.99;69.47;52234.09;5096771;28;20015;-68
2023/05/17 10:07:31;;;;;;;;;;;;;;;-144.99;69.47;52236.13;5099713;28;19932;-67
2023/05/17 10:09:58;;;;;;;;;;;;;;;-144.99;69.13;52232.03;5088409;28;19939;-67
2023/05/17 10:12:28;;;;;;;;;;;;;;;-144.99;69.73;52272.81;5099348;28;20047;-67
2023/05/17 10:14:55;;;;;;;;;;;;;;;-144.99;70.19;52223.88;5098936;27;19974;-67
2023/05/17 10:17:23;;;;;;;;;;;;;;;-144.99;70.61;52266.69;5095446;28;19935;-69
2023/05/17 10:19:51;;;;;;;;;;;;;;;-144.99;71.00;52211.66;5091412;28;19928;-68
2023/05/17 10:22:18;;;;;;;;;;;;;;;-144.99;70.42;52195.34;5094447;28;20270;-68
2023/05/17 10:24:45;;;;;;;;;;;;;;;-144.99;70.33;52268.72;5089096;28;19932;-68
2023/05/17 10:27:12;;;;;;;;;;;;;;;-144.99;70.10;52276.88;5089582;28;19989;-69
2023/05/17 10:29:39;;;;;;;;;;;;;;;-144.99;70.50;52260.56;5093366;28;19927;-68
2023/05/17 10:32:07;;;;;;;;;;;;;;;-144.99;72.05;52256.50;5088908;28;19950;-68
2023/05/17 10:34:34;;;;;;;;;;;;;;;-144.99;73.32;52280.97;5091506;28;19989;-68
2023/05/17 10:37:03;;;;;;;;;;;;;;;-144.99;73.61;52285.03;5096061;28;19942;-68
2023/05/17 10:39:31;;;;;;;;;;;;;;;-144.99;73.03;52260.56;5097664;28;19932;-68
2023/05/17 10:41:58;;;;;;;;;;;;;;;-144.99;72.72;52232.03;5094183;28;19992;-65
2023/05/17 10:44:25;;;;;;;;;;;;;;;-144.99;73.15;52268.72;5098864;28;19928;-68
2023/05/17 10:46:52;;;;;;;;;;;;;;;-144.99;72.95;52266.69;5094115;28;19974;-68
2023/05/17 10:49:19;;;;;;;;;;;;;;;-144.99;72.72;52215.75;5100879;28;20102;-68
2023/05/17 10:51:46;;;;;;;;;;;;;;;-144.99;72.25;52248.34;5089519;28;19928;-68
2023/05/17 10:54:17;;;;;;;;;;;;;;;-144.99;72.23;52223.88;5098404;28;20253;-68
2023/05/17 10:56:47;;;;;;;;;;;;;;;-144.99;71.70;52248.34;5094767;28;20023;-68
2023/05/17 10:59:14;;;;;;;;;;;;;;;-144.99;70.32;52146.44;5093325;28;19924;-69
2023/05/17 11:01:56;;;;;;;;;;;;;;;-144.99;69.44;52121.97;5089776;28;19928;-68
2023/05/17 11:04:24;;;;;;;;;;;;;;;-144.99;67.59;52170.91;5086849;28;19928;-68
2023/05/17 11:06:51;;;;;;;;;;;;;;;-144.99;67.60;52223.88;5101547;28;19927;-68
2023/05/17 11:09:21;;;;;;;;;;;;;;;-144.99;68.18;52223.88;5090465;28;19955;-68
2023/05/17 11:12:03;;;;;;;;;;;;;;;-144.99;69.23;52252.44;5096625;28;19927;-68
2023/05/17 11:14:43;;;;;;;;;;;;;;;-144.99;70.26;52270.78;5098385;27;19927;-68
2023/05/17 11:17:12;;;;;;;;;;;;;;;-144.99;70.93;52295.22;5091542;28;19990;-68
2023/05/17 11:19:39;;;;;;;;;;;;;;;-144.99;71.30;52256.50;5087744;28;19924;-68
2023/05/17 11:22:10;;;;;;;;;;;;;;;-144.99;71.87;52227.97;5094364;28;20252;-68
2023/05/17 11:24:42;;;;;;;;;;;;;;;-144.99;71.01;52207.59;5097750;28;19981;-67
2023/05/17 11:27:09;;;;;;;;;;;;;;;-144.99;70.63;52174.97;5091361;28;19928;-68
2023/05/17 11:29:39;;;;;;;;;;;;;;;-144.99;67.63;52183.13;5098442;28;20499;-67
2023/05/17 11:32:07;;;;;;;;;;;;;;;-144.99;66.97;52174.97;5097537;28;20303;-68
2023/05/17 11:34:34;;;;;;;;;;;;;;;-144.99;66.18;52150.53;5096861;28;20203;-68
2023/05/17 11:37:03;;;;;;;;;;;;;;;-144.99;65.74;52134.22;5093752;28;19935;-68
2023/05/17 11:39:30;;;;;;;;;;;;;;;-144.99;65.91;52197.41;5089016;28;19923;-68
2023/05/17 11:41:58;;;;;;;;;;;;;;;-144.99;66.50;52138.28;5095481;28;19936;-68
2023/05/17 11:44:25;;;;;;;;;;;;;;;-144.99;67.03;52179.06;5084909;28;19924;-65
2023/05/17 11:46:53;;;;;;;;;;;;;;;-144.99;66.27;52168.84;5089016;28;20022;-66
2023/05/17 11:49:19;;;;;;;;;;;;;;;-144.99;67.84;52238.16;5095347;28;20283;-66
2023/05/17 11:51:46;;;;;;;;;;;;;;;-144.99;67.72;52232.03;5092138;28;19928;-66
2023/05/17 11:54:14;;;;;;;;;;;;;;;-144.99;67.68;52183.13;5089858;28;19983;-67
2023/05/17 11:56:40;;;;;;;;;;;;;;;-144.99;67.86;52240.19;5092021;28;19931;-66
2023/05/17 11:59:08;;;;;;;;;;;;;;;-144.99;67.66;52236.13;5085617;28;20023;-68
2023/05/17 12:01:45;;;;;;;;;;;;;;;-144.99;67.02;52236.13;5090038;28;19927;-67
2023/05/17 12:04:12;;;;;;;;;;;;;;;-144.99;67.16;52234.09;5086825;28;19947;-67
2023/05/17 12:06:39;;;;;;;;;;;;;;;-144.99;67.11;52223.88;5089352;28;19928;-67
2023/05/17 12:09:09;;;;;;;;;;;;;;;-144.99;66.68;52199.44;5092403;28;19928;-66
2023/05/17 12:11:38;;;;;;;;;;;;;;;-144.99;66.98;52207.59;5092132;28;19942;-67
2023/05/17 12:14:05;;;;;;;;;;;;;;;-144.99;65.77;52183.13;5090677;27;19928;-66
2023/05/17 12:16:33;;;;;;;;;;;;;;;-144.99;65.37;52138.28;5091999;28;20400;-67
2023/05/17 12:19:00;;;;;;;;;;;;;;;-144.99;64.49;52168.84;5085628;28;19924;-67
2023/05/17 12:21:27;;;;;;;;;;;;;;;-144.99;63.07;52191.28;5096781;28;19924;-67
2023/05/17 12:23:53;;;;;;;;;;;;;;;-144.99;64.20;52227.97;5096982;28;19935;-67
2023/05/17 12:26:21;;;;;;;;;;;;;;;-144.99;65.05;52227.97;5090352;28;19935;-67